Josephine Anne — WDD9858 — position and weather

sailwx.info

Track history (hours):
 
Tides and Currents Weather Stations Pressure Air Temp Water Temp Dewpoint Dewpoint Depression Visibility Wind Speed Wind Dir Waves Ship Positions

Josephine Anne

Owner: E.N. Bisso & Son, Inc., New Orleans, LA. More information available from US FCC via Universal Licensing System and Coast Guard Vessel Documentation Center.

Last reported at 2016-Jun-28 13:16 UTC. Time now 2016-Jun-29 18:17 UTC.
Position N 29°57' W 090°03'.

Length 29 m; draft 4.3 m.

Type: Tug. MMSI: 367317270.

Date/timePositionNaut miles runAvg speedWind from/ knotsBaromVisibWave heightAir tempDewpointWater temp
2016-Jun-28 13:16N 29°57' W 090°03'0 0.0
2016-Jun-28 12:33N 29°57' W 090°03'3 3.0
2016-Jun-28 11:33N 29°55' W 090°05'0 0.0
2016-Jun-28 10:33N 29°55' W 090°05'2 1.7
2016-Jun-28 09:33N 29°55' W 090°07'1 1.2
2016-Jun-28 08:33N 29°56' W 090°08'0 0.0
2016-Jun-28 07:33N 29°56' W 090°08'1 1.3
2016-Jun-28 06:33N 29°55' W 090°07'6 2.9
2016-Jun-28 04:33N 29°57' W 090°01'0 0.0
2016-Jun-28 03:33N 29°57' W 090°01'6 6.4
2016-Jun-28 02:33N 29°56' W 090°08'0 0.0
2016-Jun-28 01:33N 29°56' W 090°08'0 0.0
2016-Jun-28 00:33N 29°56' W 090°08'0 0.0
2016-Jun-27 23:33N 29°56' W 090°08'0 0.0
2016-Jun-27 22:33N 29°56' W 090°08'0 0.0
2016-Jun-27 21:33N 29°56' W 090°08'0 0.0
2016-Jun-27 20:33N 29°56' W 090°08'0 0.0
2016-Jun-27 19:33N 29°56' W 090°08'0 0.0
2016-Jun-27 18:33N 29°56' W 090°08'0 0.0
2016-Jun-27 17:33N 29°56' W 090°08'0 0.0
2016-Jun-27 16:33N 29°56' W 090°08'0 0.0
2016-Jun-27 15:33N 29°56' W 090°08'0 0.0
2016-Jun-27 14:33N 29°56' W 090°08'0 0.0
2016-Jun-27 13:33N 29°56' W 090°08'0 0.0
2016-Jun-27 12:33N 29°56' W 090°08'3 3.1
2016-Jun-27 11:33N 29°55' W 090°05'4 3.7
2016-Jun-27 10:33N 29°57' W 090°01'0 0.0
2016-Jun-27 09:33N 29°57' W 090°01'0 0.0
2016-Jun-27 08:33N 29°57' W 090°01'0 0.0
2016-Jun-27 07:34N 29°57' W 090°01'0 0.0
2016-Jun-27 06:33N 29°57' W 090°01'0 0.0
2016-Jun-27 05:33N 29°57' W 090°01'0 0.3
2016-Jun-27 04:33N 29°57' W 090°01'0 0.1
2016-Jun-27 03:33N 29°57' W 090°01'1 1.0
2016-Jun-27 02:33N 29°56' W 089°60'1 1.2
2016-Jun-27 01:33N 29°57' W 090°01'0 0.0
2016-Jun-27 00:33N 29°57' W 090°01'0 0.0
2016-Jun-26 23:33N 29°57' W 090°01'0 0.0
2016-Jun-26 22:33N 29°57' W 090°01'0 0.0
2016-Jun-26 21:33N 29°57' W 090°01'0 0.0
2016-Jun-26 20:33N 29°57' W 090°01'0 0.0
2016-Jun-26 19:33N 29°57' W 090°01'0 0.0
2016-Jun-26 18:33N 29°57' W 090°01'0 0.0
2016-Jun-26 17:33N 29°57' W 090°01'0 0.0
2016-Jun-26 16:33N 29°57' W 090°01'0 0.0
2016-Jun-26 15:33N 29°57' W 090°01'0 0.0
2016-Jun-26 14:33N 29°57' W 090°01'0 0.0
2016-Jun-26 13:33N 29°57' W 090°01'0 0.0
2016-Jun-26 12:33N 29°57' W 090°01'0 0.0
2016-Jun-26 11:33N 29°57' W 090°01'1 1.4
2016-Jun-26 10:33N 29°56' W 089°60'4 1.3
2016-Jun-26 07:23N 29°55' W 089°55'6 6.7
2016-Jun-26 06:33N 29°57' W 090°01'0 0.0
2016-Jun-26 05:33N 29°57' W 090°01'0 0.0
2016-Jun-26 04:33N 29°57' W 090°01'0 0.0
2016-Jun-26 03:33N 29°57' W 090°01'0 0.0
2016-Jun-26 02:33N 29°57' W 090°01'0 0.0
2016-Jun-26 01:33N 29°57' W 090°01'0 0.0
2016-Jun-26 00:33N 29°57' W 090°01'0 0.0
2016-Jun-25 23:33N 29°57' W 090°01'0 0.0
2016-Jun-25 22:33N 29°57' W 090°01'1 1.1
2016-Jun-25 21:33N 29°57' W 089°60'1 0.7
2016-Jun-25 20:33N 29°56' W 089°59'0 0.1
2016-Jun-25 19:33N 29°56' W 089°59'4 3.6
2016-Jun-25 18:33N 29°58' W 090°03'3 3.1
2016-Jun-25 17:33N 29°55' W 090°05'0 0.3
2016-Jun-25 16:33N 29°55' W 090°05'0 0.0
2016-Jun-25 15:33N 29°55' W 090°05'0 0.0
2016-Jun-25 14:33N 29°55' W 090°05'0 0.3
2016-Jun-25 13:33N 29°55' W 090°04'0 0.0
2016-Jun-25 12:33N 29°55' W 090°04'2 2.0
2016-Jun-25 11:33N 29°57' W 090°04'6 6.0
2016-Jun-25 10:33N 29°55' W 089°57'0 0.0
2016-Jun-25 06:33N 29°56' W 089°57'5 4.8
2016-Jun-25 05:33N 29°57' W 090°02'1 0.5
2016-Jun-25 04:33N 29°58' W 090°02'2 1.8
2016-Jun-25 03:33N 29°60' W 090°01'1 0.6
2016-Jun-25 02:33N 29°59' W 090°01'1 0.7
2016-Jun-25 01:33N 29°60' W 090°01'0 0.0
2016-Jun-25 00:33N 29°60' W 090°01'0 0.0
2016-Jun-24 23:33N 29°60' W 090°01'0 0.0
2016-Jun-24 22:33N 29°60' W 090°01'0 0.0
2016-Jun-24 21:33N 29°60' W 090°01'0 0.0
2016-Jun-24 20:33N 29°60' W 090°01'0 0.0
2016-Jun-24 19:33N 29°60' W 090°01'0 0.0
2016-Jun-24 18:33N 29°60' W 090°01'2 1.9
2016-Jun-24 17:33N 29°58' W 090°02'0 0.1
2016-Jun-24 16:33N 29°58' W 090°02'0 0.3
2016-Jun-24 15:33N 29°58' W 090°02'6 6.0
2016-Jun-24 14:33N 29°56' W 090°08'3 0.1
2016-Jun-22 14:25N 29°56' W 090°11'  
Track history (hours):
 
Tides and Currents Weather Stations Pressure Air Temp Water Temp Dewpoint Dewpoint Depression Visibility Wind Speed Wind Dir Waves Ship Positions

Josephine Anne

Owner: E.N. Bisso & Son, Inc., New Orleans, LA. More information available from US FCC via Universal Licensing System and Coast Guard Vessel Documentation Center.

Last reported at 2016-Jun-28 13:16 UTC. Time now 2016-Jun-29 18:17 UTC.
Position N 29°57' W 090°03'.

Length 29 m; draft 4.3 m.

Type: Tug. MMSI: 367317270.

Date/timePositionNaut miles runAvg speedWind from/ knotsBaromVisibWave heightAir tempDewpointWater temp
2016-Jun-28 13:16N 29°57' W 090°03'0 0.0
2016-Jun-28 12:33N 29°57' W 090°03'3 3.0
2016-Jun-28 11:33N 29°55' W 090°05'0 0.0
2016-Jun-28 10:33N 29°55' W 090°05'2 1.7
2016-Jun-28 09:33N 29°55' W 090°07'1 1.2
2016-Jun-28 08:33N 29°56' W 090°08'0 0.0
2016-Jun-28 07:33N 29°56' W 090°08'1 1.3
2016-Jun-28 06:33N 29°55' W 090°07'6 2.9
2016-Jun-28 04:33N 29°57' W 090°01'0 0.0
2016-Jun-28 03:33N 29°57' W 090°01'6 6.4
2016-Jun-28 02:33N 29°56' W 090°08'0 0.0
2016-Jun-28 01:33N 29°56' W 090°08'0 0.0
2016-Jun-28 00:33N 29°56' W 090°08'0 0.0
2016-Jun-27 23:33N 29°56' W 090°08'0 0.0
2016-Jun-27 22:33N 29°56' W 090°08'0 0.0
2016-Jun-27 21:33N 29°56' W 090°08'0 0.0
2016-Jun-27 20:33N 29°56' W 090°08'0 0.0
2016-Jun-27 19:33N 29°56' W 090°08'0 0.0
2016-Jun-27 18:33N 29°56' W 090°08'0 0.0
2016-Jun-27 17:33N 29°56' W 090°08'0 0.0
2016-Jun-27 16:33N 29°56' W 090°08'0 0.0
2016-Jun-27 15:33N 29°56' W 090°08'0 0.0
2016-Jun-27 14:33N 29°56' W 090°08'0 0.0
2016-Jun-27 13:33N 29°56' W 090°08'0 0.0
2016-Jun-27 12:33N 29°56' W 090°08'3 3.1
2016-Jun-27 11:33N 29°55' W 090°05'4 3.7
2016-Jun-27 10:33N 29°57' W 090°01'0 0.0
2016-Jun-27 09:33N 29°57' W 090°01'0 0.0
2016-Jun-27 08:33N 29°57' W 090°01'0 0.0
2016-Jun-27 07:34N 29°57' W 090°01'0 0.0
2016-Jun-27 06:33N 29°57' W 090°01'0 0.0
2016-Jun-27 05:33N 29°57' W 090°01'0 0.3
2016-Jun-27 04:33N 29°57' W 090°01'0 0.1
2016-Jun-27 03:33N 29°57' W 090°01'1 1.0
2016-Jun-27 02:33N 29°56' W 089°60'1 1.2
2016-Jun-27 01:33N 29°57' W 090°01'0 0.0
2016-Jun-27 00:33N 29°57' W 090°01'0 0.0
2016-Jun-26 23:33N 29°57' W 090°01'0 0.0
2016-Jun-26 22:33N 29°57' W 090°01'0 0.0
2016-Jun-26 21:33N 29°57' W 090°01'0 0.0
2016-Jun-26 20:33N 29°57' W 090°01'0 0.0
2016-Jun-26 19:33N 29°57' W 090°01'0 0.0
2016-Jun-26 18:33N 29°57' W 090°01'0 0.0
2016-Jun-26 17:33N 29°57' W 090°01'0 0.0
2016-Jun-26 16:33N 29°57' W 090°01'0 0.0
2016-Jun-26 15:33N 29°57' W 090°01'0 0.0
2016-Jun-26 14:33N 29°57' W 090°01'0 0.0
2016-Jun-26 13:33N 29°57' W 090°01'0 0.0
2016-Jun-26 12:33N 29°57' W 090°01'0 0.0
2016-Jun-26 11:33N 29°57' W 090°01'1 1.4
2016-Jun-26 10:33N 29°56' W 089°60'4 1.3
2016-Jun-26 07:23N 29°55' W 089°55'6 6.7
2016-Jun-26 06:33N 29°57' W 090°01'0 0.0
2016-Jun-26 05:33N 29°57' W 090°01'0 0.0
2016-Jun-26 04:33N 29°57' W 090°01'0 0.0
2016-Jun-26 03:33N 29°57' W 090°01'0 0.0
2016-Jun-26 02:33N 29°57' W 090°01'0 0.0
2016-Jun-26 01:33N 29°57' W 090°01'0 0.0
2016-Jun-26 00:33N 29°57' W 090°01'0 0.0
2016-Jun-25 23:33N 29°57' W 090°01'0 0.0
2016-Jun-25 22:33N 29°57' W 090°01'1 1.1
2016-Jun-25 21:33N 29°57' W 089°60'1 0.7
2016-Jun-25 20:33N 29°56' W 089°59'0 0.1
2016-Jun-25 19:33N 29°56' W 089°59'4 3.6
2016-Jun-25 18:33N 29°58' W 090°03'3 3.1
2016-Jun-25 17:33N 29°55' W 090°05'0 0.3
2016-Jun-25 16:33N 29°55' W 090°05'0 0.0
2016-Jun-25 15:33N 29°55' W 090°05'0 0.0
2016-Jun-25 14:33N 29°55' W 090°05'0 0.3
2016-Jun-25 13:33N 29°55' W 090°04'0 0.0
2016-Jun-25 12:33N 29°55' W 090°04'2 2.0
2016-Jun-25 11:33N 29°57' W 090°04'6 6.0
2016-Jun-25 10:33N 29°55' W 089°57'0 0.0
2016-Jun-25 06:33N 29°56' W 089°57'5 4.8
2016-Jun-25 05:33N 29°57' W 090°02'1 0.5
2016-Jun-25 04:33N 29°58' W 090°02'2 1.8
2016-Jun-25 03:33N 29°60' W 090°01'1 0.6
2016-Jun-25 02:33N 29°59' W 090°01'1 0.7
2016-Jun-25 01:33N 29°60' W 090°01'0 0.0
2016-Jun-25 00:33N 29°60' W 090°01'0 0.0
2016-Jun-24 23:33N 29°60' W 090°01'0 0.0
2016-Jun-24 22:33N 29°60' W 090°01'0 0.0
2016-Jun-24 21:33N 29°60' W 090°01'0 0.0
2016-Jun-24 20:33N 29°60' W 090°01'0 0.0
2016-Jun-24 19:33N 29°60' W 090°01'0 0.0
2016-Jun-24 18:33N 29°60' W 090°01'2 1.9
2016-Jun-24 17:33N 29°58' W 090°02'0 0.1
2016-Jun-24 16:33N 29°58' W 090°02'0 0.3
2016-Jun-24 15:33N 29°58' W 090°02'6 6.0
2016-Jun-24 14:33N 29°56' W 090°08'3 0.1
2016-Jun-22 14:25N 29°56' W 090°11'  

Dump ship's entire track history